JP-0080 weather

Kagawa Prefectural Office Main Building Helipad
Tenjinmae, Takamatsu-shi, Kagawa Prefecture, Japan

Public forecast

Using degrees Celsius for public forecast. Weather courtesy of forecast.io.

METAR (pilot weather report)

Report is more than 2 hours old.

Closest report is Takamatsu Airport, 7.7 nm (14.2 km) S. Retrieved 2019/05/26 12:00 UTC (4 hours ago):

RJOT 261200Z 18006KT CAVOK 22/14 Q1017

TAF (pilot weather forecast)

Closest forecast is Takamatsu Airport, 7.7 nm (14.2 km) S. Retrieved 2019/05/26 12:30 UTC (4 hours ago):

TAF TAF RJOT 261108Z 2612/2718 20005KT CAVOK BECMG 2612/2614 15007KT BECMG 2700/2703 25006KT BECMG 2709/2712 15006KT